This is the latest recevied weather packets stored in our database for station/object SP6YY-15. If no packets are shown the sender has not sent any weather packets the latest 10 day(s).
| Time | Temp. | Humidity | Pressure | Rain* | Wind** | Luminosity | Snow |
|---|---|---|---|---|---|---|---|
| 1777532578 | 19.44° C | 18% | 1018.4 hPa | - | - | - | - |
| 1777532278 | 19.44° C | 18% | 1018.5 hPa | - | - | - | - |
| 1777531977 | 19.44° C | 18% | 1018.5 hPa | - | - | - | - |
| 1777530178 | 23.89° C | 16% | 1018.4 hPa | - | - | - | - |
| 1777529878 | 22.78° C | 16% | 1018.6 hPa | - | - | - | - |
| 1777529577 | 21.67° C | 16% | 1019 hPa | - | - | - | - |
| 1777529277 | 20° C | 15% | 1018.4 hPa | - | - | - | - |
| 1777480318 | 46.67° C | 6% | 1014.5 hPa | - | - | - | - |
| 1777479717 | 46.67° C | 6% | 1015.1 hPa | - | - | - | - |
| 1777479418 | 46.67° C | 6% | 1015 hPa | - | - | - | - |
| 1777472491 | 48.89° C | 7% | 1014.9 hPa | - | - | - | - |
| 1777470990 | 50° C | 8% | 1015 hPa | - | - | - | - |
| 1777449671 | 24.44° C | 16% | 1015.3 hPa | - | - | - | - |
| 1777449071 | 24.44° C | 15% | 1015.2 hPa | - | - | - | - |
| 1777448771 | 24.44° C | 15% | 1015.3 hPa | - | - | - | - |
| 1777448471 | 23.89° C | 15% | 1015.1 hPa | - | - | - | - |
| 1777448171 | 23.89° C | 15% | 1015 hPa | - | - | - | - |
| 1777447871 | 23.89° C | 15% | 1015 hPa | - | - | - | - |
| 1777447271 | 24.44° C | 15% | 1014.9 hPa | - | - | - | - |
| 1777446971 | 25° C | 15% | 1014.9 hPa | - | - | - | - |
| 1777446671 | 25.56° C | 14% | 1014.9 hPa | - | - | - | - |
| 1777446371 | 26.67° C | 14% | 1014.8 hPa | - | - | - | - |
| 1777446071 | 28.89° C | 14% | 1015 hPa | - | - | - | - |
| 1777445461 | 30° C | 14% | 1014.3 hPa | - | - | - | - |
| 1777445150 | 28.33° C | 14% | 1014.8 hPa | - | - | - | - |
* Rain since midnight (hover to see other rain measurements)
** Current wind speed in m/s (hover to see current wind gust speed)